This is the latest recevied weather packets stored in our database for station/object WA9SDJ-13. If no packets are shown the sender has not sent any weather packets the latest 1 day(s).
| Time | Temp. | Humidity | Pressure | Rain* | Wind** | Luminosity | Snow |
|---|---|---|---|---|---|---|---|
| 1778104327 | 15.56° C | 48% | 1014 hPa | 0 mm | - | 134 W/m² | - |
| 1778104027 | 15.56° C | 47% | 1014.1 hPa | 0 mm | - | 111 W/m² | - |
| 1778102946 | 15.56° C | 50% | 1014 hPa | 0 mm | - | 230 W/m² | - |
| 1778102766 | 15.56° C | 48% | 1014.1 hPa | 0 mm | - | 681 W/m² | - |
| 1778102346 | 15.56° C | 46% | 1014 hPa | 0 mm | - | 732 W/m² | - |
| 1778102286 | 15.56° C | 46% | 1014 hPa | 0 mm | - | 471 W/m² | - |
| 1778102226 | 16.11° C | 46% | 1014 hPa | 0 mm | - | 172 W/m² | - |
| 1778102166 | 16.11° C | 50% | 1013.9 hPa | 0 mm | - | 137 W/m² | - |
| 1778102106 | 16.11° C | 52% | 1013.9 hPa | 0 mm | - | 95 W/m² | - |
| 1778102046 | 16.11° C | 50% | 1013.9 hPa | 0 mm | - | 403 W/m² | - |
| 1778101926 | 16.11° C | 48% | 1013.9 hPa | 0 mm | - | 719 W/m² | - |
| 1778101445 | 16.67° C | 50% | 1014 hPa | 0 mm | - | 740 W/m² | - |
| 1778101326 | 16.11° C | 53% | 1013.9 hPa | 0 mm | - | 730 W/m² | - |
| 1778101266 | 16.11° C | 49% | 1013.9 hPa | 0 mm | - | 735 W/m² | - |
| 1778101025 | 16.11° C | 51% | 1013.9 hPa | 0 mm | - | 784 W/m² | - |
| 1778100965 | 16.11° C | 49% | 1013.9 hPa | 0 mm | - | 789 W/m² | - |
| 1778100905 | 15.56° C | 51% | 1014 hPa | 0 mm | - | 798 W/m² | - |
| 1778100846 | 15.56° C | 52% | 1014 hPa | 0 mm | - | 811 W/m² | - |
| 1778100786 | 15.56° C | 52% | 1014 hPa | 0 mm | - | 819 W/m² | - |
| 1778100605 | 15.56° C | 49% | 1014.1 hPa | 0 mm | - | 842 W/m² | - |
| 1778100545 | 15.56° C | 51% | 1014.1 hPa | 0 mm | - | 840 W/m² | - |
| 1778100425 | 15.56° C | 49% | 1014.1 hPa | 0 mm | - | 842 W/m² | - |
| 1778100305 | 15.56° C | 53% | 1014.1 hPa | 0 mm | - | 234 W/m² | - |
| 1778100245 | 15.56° C | 54% | 1014 hPa | 0 mm | - | 211 W/m² | - |
| 1778099585 | 16.11° C | 49% | 1013.9 hPa | 0 mm | - | 723 W/m² | - |
* Rain latest hour (hover to see other rain measurements)
** Current wind speed in m/s (hover to see current wind gust speed)